Time;durP1;ratioP1;P1;durP2;ratioP2;P2;SDS_P1;SDS_P2;PMS_P1;PMS_P2;Temp;Humidity;BMP_temperature;BMP_pressure;BME280_temperature;BME280_humidity;BME280_pressure;Samples;Min_cycle;Max_cycle;Signal;HPM_P1;HPM_P2
2023/10/31 17:20:14;;;;;;;2.00;1.00;;;;;;;13.79;97.53;98929.27;180789;1264;579082;-65
2023/10/31 17:24:16;;;;;;;1.60;1.00;;;;;;;14.03;97.35;98947.36;183481;1243;57262;-65
2023/10/31 17:28:18;;;;;;;1.20;0.90;;;;;;;13.95;96.40;98954.99;183536;1244;45249;-65
2023/10/31 17:32:21;;;;;;;0.60;0.60;;;;;;;13.90;96.29;98962.67;183463;1245;45929;-65
2023/10/31 17:36:26;;;;;;;3.10;1.50;;;;;;;13.87;96.89;98974.54;183602;1243;45198;-65
2023/10/31 17:40:31;;;;;;;3.10;0.70;;;;;;;13.78;97.55;98972.48;183369;1243;45994;-65
2023/10/31 17:44:33;;;;;;;1.20;0.90;;;;;;;13.75;97.42;98972.29;184647;1235;60312;-65
2023/10/31 17:48:35;;;;;;;2.80;0.70;;;;;;;13.68;97.77;98975.48;184881;1239;45992;-65
2023/10/31 17:52:43;;;;;;;4.20;1.30;;;;;;;13.63;97.76;98981.54;184784;1235;45946;-65
2023/10/31 17:56:45;;;;;;;2.70;1.10;;;;;;;13.50;96.38;98985.95;184563;1235;45910;-67
2023/10/31 18:00:47;;;;;;;1.20;1.00;;;;;;;13.50;96.82;98993.20;184744;1235;44799;-65
2023/10/31 18:04:49;;;;;;;2.50;0.80;;;;;;;13.45;97.06;98994.10;184839;1236;57173;-66
2023/10/31 18:08:54;;;;;;;1.50;0.70;;;;;;;13.47;98.24;99003.61;185136;1234;43646;-65
2023/10/31 18:12:56;;;;;;;1.70;1.00;;;;;;;13.49;98.52;99008.44;185061;1234;43748;-65
2023/10/31 18:16:58;;;;;;;2.80;1.00;;;;;;;13.49;98.57;99010.05;184807;1233;46068;-65
2023/10/31 18:21:03;;;;;;;2.90;1.40;;;;;;;13.48;98.64;99017.06;184923;1234;43794;-65
2023/10/31 18:25:06;;;;;;;2.30;1.60;;;;;;;13.47;98.90;99021.81;185189;1235;59891;-65
2023/10/31 18:29:08;;;;;;;3.60;1.70;;;;;;;13.46;99.27;99025.13;185098;1234;44770;-66
2023/10/31 18:33:11;;;;;;;3.20;1.80;;;;;;;13.45;99.98;99032.20;185176;1235;45062;-66
2023/10/31 18:37:14;;;;;;;1.60;1.10;;;;;;;13.39;99.88;99036.25;185297;1235;43714;-62
2023/10/31 18:41:19;;;;;;;1.60;0.90;;;;;;;13.33;100.00;99037.23;185377;1234;45193;-62
2023/10/31 18:45:22;;;;;;;3.50;1.10;;;;;;;13.32;100.00;99032.17;185289;1235;58629;-62
2023/10/31 18:49:31;;;;;;;1.40;1.20;;;;;;;13.32;100.00;99034.67;185315;1236;44040;-62
2023/10/31 18:53:33;;;;;;;0.90;0.80;;;;;;;13.29;100.00;99034.29;185093;1233;43510;-62
2023/10/31 18:57:37;;;;;;;3.80;1.40;;;;;;;13.28;99.95;99044.77;185349;1233;45825;-62
2023/10/31 19:01:39;;;;;;;1.70;1.30;;;;;;;13.28;100.00;99051.72;185412;1234;45963;-63
2023/10/31 19:05:43;;;;;;;1.50;1.30;;;;;;;13.31;100.00;99057.77;185314;1233;58317;-62
2023/10/31 19:09:45;;;;;;;1.90;1.50;;;;;;;13.32;100.00;99061.74;185272;1234;46460;-62
2023/10/31 19:13:59;;;;;;;3.10;1.30;;;;;;;13.31;100.00;99069.72;185352;1233;44999;-62
2023/10/31 19:18:01;;;;;;;8.70;1.50;;;;;;;13.28;100.00;99076.62;185314;1234;43871;-62
2023/10/31 19:22:03;;;;;;;1.40;1.20;;;;;;;13.27;100.00;99080.09;185359;1233;45967;-62
2023/10/31 19:26:06;;;;;;;2.60;1.30;;;;;;;13.28;100.00;99085.87;185331;1234;58451;-62
2023/10/31 19:30:16;;;;;;;2.90;1.20;;;;;;;13.27;100.00;99091.47;185367;1235;43568;-62
2023/10/31 19:34:18;;;;;;;2.00;1.20;;;;;;;13.27;100.00;99088.94;185162;1235;45951;-61
2023/10/31 19:38:20;;;;;;;1.20;0.90;;;;;;;13.24;100.00;99103.03;185333;1233;45959;-62
2023/10/31 19:42:22;;;;;;;2.10;1.30;;;;;;;13.22;100.00;99113.73;185392;1233;44560;-63
2023/10/31 19:46:26;;;;;;;1.60;1.50;;;;;;;13.23;100.00;99113.16;185227;1235;58476;-63
2023/10/31 19:50:30;;;;;;;2.20;1.60;;;;;;;13.23;100.00;99112.42;185185;1236;43473;-61
2023/10/31 19:54:32;;;;;;;2.60;1.00;;;;;;;13.24;100.00;99124.64;185302;1234;45185;-62
2023/10/31 19:58:34;;;;;;;2.80;1.80;;;;;;;13.20;100.00;99120.18;185398;1233;44024;-63
2023/10/31 20:02:37;;;;;;;1.80;1.10;;;;;;;13.17;100.00;99124.32;185438;1233;44280;-62
2023/10/31 20:06:41;;;;;;;2.10;1.30;;;;;;;13.15;100.00;99131.43;185151;1234;58264;-62
2023/10/31 20:10:43;;;;;;;3.10;1.40;;;;;;;13.16;100.00;99136.30;185227;1234;45234;-61
2023/10/31 20:14:45;;;;;;;1.90;1.60;;;;;;;13.15;100.00;99144.05;185258;1233;44939;-62
2023/10/31 20:19:05;;;;;;;3.20;0.80;;;;;;;13.18;100.00;99151.29;185514;1235;43664;-61
2023/10/31 20:23:07;;;;;;;2.00;1.30;;;;;;;13.13;100.00;99157.60;185354;1237;43518;-61
2023/10/31 20:27:09;;;;;;;2.00;1.20;;;;;;;13.12;100.00;99166.85;185277;1234;57648;-62
2023/10/31 20:31:11;;;;;;;1.20;1.00;;;;;;;13.11;100.00;99175.86;185238;1234;45923;-61
2023/10/31 20:35:13;;;;;;;2.50;2.00;;;;;;;13.13;100.00;99174.23;185244;1233;43805;-63
2023/10/31 20:39:16;;;;;;;2.20;1.30;;;;;;;13.15;100.00;99176.85;185362;1235;45893;-61
2023/10/31 20:43:19;;;;;;;1.60;1.30;;;;;;;13.13;100.00;99185.93;185386;1234;45912;-62
2023/10/31 20:47:22;;;;;;;1.30;1.20;;;;;;;13.12;100.00;99190.02;185389;1233;58568;-61
2023/10/31 20:51:23;;;;;;;3.70;1.70;;;;;;;13.12;100.00;99197.77;185302;1235;45984;-62
2023/10/31 20:55:25;;;;;;;1.70;1.30;;;;;;;13.11;100.00;99197.76;185383;1234;44534;-61
2023/10/31 20:59:27;;;;;;;1.80;1.40;;;;;;;13.10;100.00;99199.96;185289;1233;43575;-62
2023/10/31 21:03:31;;;;;;;2.30;1.60;;;;;;;13.09;100.00;99200.10;185255;1235;44766;-61
2023/10/31 21:07:36;;;;;;;3.60;1.30;;;;;;;13.04;100.00;99195.66;185311;1236;60003;-62
2023/10/31 21:11:39;;;;;;;1.50;1.00;;;;;;;13.06;100.00;99198.30;185278;1233;45983;-62
2023/10/31 21:15:41;;;;;;;3.40;1.80;;;;;;;13.10;100.00;99203.59;185958;1236;43476;-64
2023/10/31 21:19:45;;;;;;;2.10;1.30;;;;;;;13.09;100.00;99204.73;185579;1234;43685;-63
2023/10/31 21:24:27;;;;;;;1.30;1.00;;;;;;;13.08;100.00;99211.81;185416;1233;45001;-61
2023/10/31 21:28:31;;;;;;;2.70;1.10;;;;;;;13.02;100.00;99213.29;185389;1235;58718;-62
2023/10/31 21:37:39;;;;;;;2.90;1.30;;;;;;;13.05;100.00;99212.80;185138;1234;44595;-62
2023/10/31 21:41:46;;;;;;;2.50;1.70;;;;;;;13.04;100.00;99215.98;185186;1236;43779;-62
2023/10/31 21:45:49;;;;;;;2.30;1.30;;;;;;;13.05;100.00;99218.39;185271;1233;45895;-63
2023/10/31 21:49:52;;;;;;;1.90;1.00;;;;;;;13.02;100.00;99220.48;185032;1236;57197;-61
2023/10/31 21:54:04;;;;;;;5.20;1.70;;;;;;;13.06;100.00;99228.56;185170;1234;44628;-67
2023/10/31 21:58:06;;;;;;;3.30;1.30;;;;;;;13.10;100.00;99235.56;185139;1233;45954;-66
2023/10/31 22:02:09;;;;;;;3.00;1.70;;;;;;;13.08;100.00;99240.27;185472;1232;44561;-66
2023/10/31 22:06:11;;;;;;;1.40;1.20;;;;;;;13.10;100.00;99248.95;185472;1233;43508;-68
2023/10/31 22:10:15;;;;;;;1.90;1.50;;;;;;;13.05;100.00;99252.92;185368;1233;58573;-68
2023/10/31 22:14:17;;;;;;;1.60;1.30;;;;;;;13.08;100.00;99253.79;185370;1233;43599;-68
2023/10/31 22:18:30;;;;;;;3.10;1.60;;;;;;;13.08;100.00;99252.55;185399;1234;45825;-67
2023/10/31 22:22:33;;;;;;;6.50;2.00;;;;;;;13.09;100.00;99260.07;185347;1234;44048;-67
2023/10/31 22:26:35;;;;;;;2.50;1.60;;;;;;;13.07;100.00;99264.56;185265;1234;44677;-68
2023/10/31 22:30:37;;;;;;;3.20;2.00;;;;;;;13.06;100.00;99270.71;185361;1234;60057;-66
2023/10/31 22:34:40;;;;;;;4.60;2.10;;;;;;;13.05;100.00;99274.45;185267;1234;43725;-67
2023/10/31 22:39:01;;;;;;;3.70;2.10;;;;;;;13.05;100.00;99273.89;185389;1234;44913;-67
2023/10/31 22:43:03;;;;;;;3.30;1.50;;;;;;;13.08;100.00;99275.52;185159;1233;43606;-68
2023/10/31 22:47:07;;;;;;;3.10;1.90;;;;;;;13.09;100.00;99273.63;185217;1234;45903;-68
2023/10/31 22:51:09;;;;;;;2.50;1.60;;;;;;;13.08;100.00;99276.41;185435;1234;57374;-68
2023/10/31 22:55:11;;;;;;;5.60;1.80;;;;;;;13.08;100.00;99275.02;185277;1234;46004;-69
2023/10/31 22:59:15;;;;;;;3.50;1.50;;;;;;;13.07;100.00;99283.46;185341;1233;45896;-68
2023/10/31 23:03:17;;;;;;;2.00;1.40;;;;;;;13.06;100.00;99289.10;185423;1233;43598;-68
2023/10/31 23:07:19;;;;;;;0.90;0.70;;;;;;;13.06;100.00;99294.47;185292;1233;43707;-68
2023/10/31 23:11:29;;;;;;;2.00;1.30;;;;;;;13.07;100.00;99297.87;185300;1233;57681;-67
2023/10/31 23:15:32;;;;;;;4.10;2.10;;;;;;;13.04;100.00;99304.58;185403;1234;44508;-67
2023/10/31 23:19:42;;;;;;;2.10;1.40;;;;;;;13.03;100.00;99312.40;185423;1234;45931;-68
2023/10/31 23:23:44;;;;;;;1.60;1.30;;;;;;;13.01;100.00;99315.52;185306;1233;46107;-67
2023/10/31 23:27:46;;;;;;;1.70;1.10;;;;;;;13.01;100.00;99317.36;185352;1233;45999;-67
2023/10/31 23:31:48;;;;;;;3.90;2.30;;;;;;;12.99;100.00;99320.73;185328;1233;57145;-69
2023/10/31 23:35:51;;;;;;;3.40;1.40;;;;;;;12.97;100.00;99326.30;185334;1236;45982;-67
2023/10/31 23:39:53;;;;;;;1.70;1.30;;;;;;;12.91;100.00;99334.05;185216;1234;43692;-67
2023/10/31 23:43:55;;;;;;;1.60;1.50;;;;;;;12.83;100.00;99343.23;185190;1233;43716;-67
2023/10/31 23:48:55;;;;;;;3.20;1.40;;;;;;;12.79;100.00;99347.95;185204;1233;45017;-68
2023/10/31 23:52:59;;;;;;;7.00;1.90;;;;;;;12.79;100.00;99349.99;185444;1234;58380;-67
2023/10/31 23:57:01;;;;;;;4.40;2.10;;;;;;;12.77;100.00;99360.27;185364;1234;45960;-67
